Архив погоды в Ильинском

Метеограмма Ильинский
Четверг, 16 Августа
Время местн. Темп Ветер Видим Явления Облачность нижн/средн/верх Атм. давл. Влжн Точка росы ВНГО R Сост. почвы Tg s
Напр Скр Прв ур.ст ур.м изм
07:00 +14.5° С-В 4 7 50 км - облачно 761 763 +0.2 86% +12.1° 1 км 0 Сухая (без трещин) - -
04:00 +14.1° С-В 4 6 10 км - ясно 761 763 -0.4 90% +12.5° более 2.5 км - - - -
01:00 +14.6° В 3 6 10 км - ясно 761 763 +0.1 91% +13.2° более 2.5 км - - - -
Среда, 15 Августа
Время местн. Темп Ветер Видим Явления Облачность нижн/средн/верх Атм. давл. Влжн Точка росы ВНГО R Сост. почвы Tg s
Напр Скр Прв ур.ст ур.м изм
22:00 +14.6° В 1 3 10 км - ясно 761 763 +0.5 79% +11° более 2.5 км - - - -
19:00 +17° штиль 0 - 50 км - облачно 761 762 -0.3 77% +13° 1 км 0 - - -
16:00 +17.8° З,С-З 5 6 50 км - облачно 761 763 -0.6 77% +13.7° 1 км - - - -
13:00 +19.1° С-В 2 3 50 км - облачно 762 763 0 62% +11.6° 1 км - - - -
10:00 +18.8° В 4 7 50 км - облачно 762 763 +0.3 65% +12° более 2.5 км - - - -
07:00 +14.2° В,С-В 2 6 более 50 км - облачно с прояснениями 761 763 +0.8 92% +13° более 2.5 км 0 Сухая (без трещин) +9° -
04:00 +10.3° С-В 2 3 10 км - ясно 761 762 -0.1 95% +9.6° более 2.5 км - - - -
01:00 +11.7° В 2 4 10 км - ясно 761 762 +0.3 94% +10.8° более 2.5 км - - - -
Вторник, 14 Августа
Время местн. Темп Ветер Видим Явления Облачность нижн/средн/верх Атм. давл. Влжн Точка росы ВНГО R Сост. почвы Tg s
Напр Скр Прв ур.ст ур.м изм
22:00 +14.4° В 1 2 10 км - ясно 760 762 +1 86% +12.1° более 2.5 км - - - -
19:00 +18.3° З,С-З 4 8 более 50 км - переменная облачность 759 761 +0.1 73% +13.3° более 2.5 км 0 - - -
16:00 +20.5° З,С-З 6 8 50 км - незначительная облачность 759 761 +0.3 61% +12.8° 1.5 км - - - -
13:00 +19.6° З,С-З 5 7 более 50 км - переменная облачность 759 761 +0.3 78% +15.6° 1.5 км - - - -
10:00 +20.2° В,С-В 3 4 50 км - переменная облачность 759 760 +0.7 70% +14.6° 1.5 км - - - -
07:00 +15.1° В 2 3 20 км - облачно 758 760 +0.7 98% +14.8° 300 м 0 Влажная (без луж) +13° -
04:00 +14.6° В 1 3 10 км небо без изменений {ливневые осадки} облачно 758 759 +0.7 99% +14.4° 300 м - - - -
01:00 +14.3° В 1 2 10 км небо без изменений {ливневые осадки} облачно 757 759 +0.7 99% +14.1° 1 км - - - -
Понедельник, 13 Августа
Время местн. Темп Ветер Видим Явления Облачность нижн/средн/верх Атм. давл. Влжн Точка росы ВНГО R Сост. почвы Tg s
Напр Скр Прв ур.ст ур.м изм
22:00 +17.1° В,С-В 1 4 10 км - облачно 756 758 +0.9 93% +15.9° 1 км - - - -
19:00 +19° В 2 4 20 км - облачно 755 757 +0.5 86% +16.6° 1 км 0 - - -
16:00 +21.7° З 2 4 20 км - облачно 755 756 -0.2 82% +18.4° более 2.5 км - - - -
13:00 +20.5° З 3 4 20 км - облачно 756 757 -0.2 87% +18.2° 1 км - - - -
10:00 +19.2° Ю 1 2 20 км небо без изменений {морось, туман} облачно 756 758 0 89% +17.4° 600 м - - - -
07:00 +17.4° С-З 1 2 0.5 км слабая морось с перерывами {туман} неба не видно 756 758 +0.3 99% +17.2° - 0 Влажная (без луж) - -
04:00 +16.3° В,С-В 1 3 10 км туман ясно 756 757 -0.5 97% +15.9° более 2.5 км - - - -